createdAt,value
2023-04-07T00:01:11.029Z,227.63
2023-04-07T00:03:45.634Z,232.27
2023-04-07T00:06:14.756Z,212.53
2023-04-07T00:08:42.384Z,203.03
2023-04-07T00:11:10.027Z,225.83
2023-04-07T00:13:38.441Z,227.67
2023-04-07T00:16:06.599Z,241.83
2023-04-07T00:18:34.339Z,230.47
2023-04-07T00:21:02.157Z,228.13
2023-04-07T00:23:31.762Z,222.90
2023-04-07T00:25:59.403Z,234.77
2023-04-07T00:28:27.066Z,230.87
2023-04-07T00:30:54.741Z,219.20
2023-04-07T00:33:22.384Z,220.90
2023-04-07T00:35:50.074Z,210.77
2023-04-07T00:38:17.733Z,217.13
2023-04-07T00:40:46.748Z,222.70
2023-04-07T00:43:14.646Z,203.67
2023-04-07T00:45:42.448Z,211.33
2023-04-07T00:48:11.358Z,213.93
2023-04-07T00:50:39.244Z,212.77
2023-04-07T00:53:07.818Z,220.20
2023-04-07T00:55:35.674Z,214.10
2023-04-07T00:58:05.609Z,231.10
2023-04-07T01:00:37.140Z,204.83
2023-04-07T01:03:10.506Z,199.87
2023-04-07T01:05:45.880Z,195.07
2023-04-07T01:08:17.434Z,204.30
2023-04-07T01:10:53.030Z,202.97
2023-04-07T01:13:29.539Z,206.43
2023-04-07T01:16:12.419Z,201.07
2023-04-07T01:18:49.029Z,203.37
2023-04-07T01:21:19.326Z,202.67
2023-04-07T01:24:06.473Z,224.20
2023-04-07T01:26:34.744Z,204.93
2023-04-07T01:29:20.900Z,220.47
2023-04-07T01:31:51.052Z,213.97
2023-04-07T01:34:20.683Z,223.53
2023-04-07T01:36:50.826Z,203.77
2023-04-07T01:39:19.662Z,223.83
2023-04-07T01:41:48.130Z,215.47
2023-04-07T01:44:16.399Z,197.63
2023-04-07T01:46:45.582Z,209.47
2023-04-07T01:49:14.419Z,216.60
2023-04-07T01:51:43.341Z,207.93
2023-04-07T01:54:11.100Z,204.30
2023-04-07T01:56:38.740Z,202.40
2023-04-07T01:59:07.721Z,209.87
2023-04-07T02:01:35.934Z,219.07
2023-04-07T02:04:13.745Z,201.93
2023-04-07T02:06:45.602Z,216.53
2023-04-07T02:09:17.697Z,211.97
2023-04-07T02:11:46.068Z,220.07
2023-04-07T02:14:15.544Z,207.10
2023-04-07T02:16:56.919Z,213.70
2023-04-07T02:19:27.385Z,205.13
2023-04-07T02:21:56.023Z,217.73
2023-04-07T02:24:23.657Z,213.50
2023-04-07T02:26:51.606Z,201.67
2023-04-07T02:29:19.316Z,220.43
2023-04-07T02:31:47.036Z,209.07
2023-04-07T02:34:14.878Z,217.83
2023-04-07T02:36:43.966Z,221.57
2023-04-07T02:39:11.674Z,222.70
2023-04-07T02:41:39.360Z,213.57
2023-04-07T02:44:06.992Z,208.50
2023-04-07T02:46:35.053Z,206.93
2023-04-07T02:49:02.808Z,196.70
2023-04-07T02:51:31.347Z,223.37
2023-04-07T02:54:00.448Z,222.83
2023-04-07T02:56:28.146Z,218.67
2023-04-07T02:58:55.793Z,220.60
2023-04-07T03:01:23.736Z,213.73
2023-04-07T03:03:51.745Z,226.67
2023-04-07T03:06:24.088Z,211.77
2023-04-07T03:09:13.441Z,217.03
2023-04-07T03:11:41.678Z,209.67
2023-04-07T03:14:09.893Z,218.00
2023-04-07T03:16:45.065Z,214.70
2023-04-07T03:19:14.551Z,225.70
2023-04-07T03:21:45.685Z,214.37
2023-04-07T03:24:14.990Z,220.60
2023-04-07T03:26:42.711Z,220.60
2023-04-07T03:29:29.603Z,200.83
2023-04-07T03:31:57.382Z,217.43
2023-04-07T03:34:26.242Z,205.57
2023-04-07T03:36:53.850Z,220.40
2023-04-07T03:39:23.204Z,206.23
2023-04-07T03:41:56.154Z,208.37
2023-04-07T03:44:24.443Z,208.47
2023-04-07T03:46:53.696Z,209.23
2023-04-07T03:49:23.762Z,223.70
2023-04-07T03:51:52.514Z,199.70
2023-04-07T03:54:21.002Z,209.67
2023-04-07T03:56:50.012Z,225.33
2023-04-07T03:59:22.377Z,196.23
2023-04-07T04:02:03.448Z,215.97
2023-04-07T04:04:31.562Z,206.90
2023-04-07T04:06:59.898Z,208.83
2023-04-07T04:09:39.947Z,201.23
2023-04-07T04:12:09.336Z,211.53
2023-04-07T04:14:44.437Z,200.20
2023-04-07T04:17:14.522Z,190.63
2023-04-07T04:19:46.159Z,201.00
2023-04-07T04:22:28.131Z,194.37
2023-04-07T04:24:58.691Z,194.03
2023-04-07T04:27:29.629Z,196.67
2023-04-07T04:30:08.163Z,196.77
2023-04-07T04:32:40.782Z,202.73
2023-04-07T04:35:10.293Z,212.07
2023-04-07T04:37:47.038Z,209.03
2023-04-07T04:40:15.986Z,204.77
2023-04-07T04:42:48.821Z,195.80
2023-04-07T04:45:17.354Z,204.63
2023-04-07T04:47:48.086Z,206.83
2023-04-07T04:50:17.407Z,191.13
2023-04-07T04:52:47.267Z,202.73
2023-04-07T04:55:21.374Z,211.60
2023-04-07T04:57:51.182Z,200.13
2023-04-07T05:00:25.424Z,183.53
2023-04-07T05:02:59.334Z,206.00
2023-04-07T05:05:27.697Z,190.10
2023-04-07T05:07:56.615Z,206.80
2023-04-07T05:10:26.868Z,199.80
2023-04-07T05:12:57.069Z,205.03
2023-04-07T05:15:24.730Z,194.93
2023-04-07T05:17:52.434Z,194.20
2023-04-07T05:20:25.015Z,214.80
2023-04-07T05:22:53.008Z,198.97
2023-04-07T05:25:24.389Z,204.57
2023-04-07T05:27:59.784Z,205.27
2023-04-07T05:30:27.416Z,209.00
2023-04-07T05:32:56.358Z,210.63
2023-04-07T05:35:36.371Z,198.80
2023-04-07T05:38:04.265Z,203.17
2023-04-07T05:40:32.682Z,211.07
2023-04-07T05:43:05.222Z,191.30
2023-04-07T05:45:34.714Z,223.93
2023-04-07T05:48:02.491Z,212.63
2023-04-07T05:50:39.618Z,224.73
2023-04-07T05:53:11.748Z,214.13
2023-04-07T05:55:39.401Z,207.57
2023-04-07T05:58:11.423Z,211.80
2023-04-07T06:00:42.027Z,203.70
2023-04-07T06:03:15.132Z,202.77
2023-04-07T06:05:53.223Z,197.07
2023-04-07T06:08:22.525Z,210.43
2023-04-07T06:10:50.463Z,210.13
2023-04-07T06:13:19.425Z,222.60
2023-04-07T06:15:47.237Z,213.53
2023-04-07T06:18:14.872Z,210.30
2023-04-07T06:20:42.476Z,213.17
2023-04-07T06:23:10.209Z,210.73
2023-04-07T06:25:37.807Z,211.30
2023-04-07T06:28:05.563Z,212.43
2023-04-07T06:30:35.377Z,221.10
2023-04-07T06:33:09.446Z,219.90
2023-04-07T06:35:37.121Z,226.40
2023-04-07T06:38:04.841Z,234.67
2023-04-07T06:40:33.488Z,212.87
2023-04-07T06:43:01.240Z,227.10
2023-04-07T06:46:01.111Z,219.63
2023-04-07T06:48:28.867Z,231.67
2023-04-07T06:50:56.488Z,219.10
2023-04-07T06:53:24.104Z,230.37
2023-04-07T06:55:51.764Z,240.03
2023-04-07T06:58:19.773Z,231.20
2023-04-07T07:00:47.427Z,224.00
2023-04-07T07:03:16.695Z,230.80
2023-04-07T07:05:44.448Z,223.87
2023-04-07T07:08:12.651Z,237.40
2023-04-07T07:10:40.262Z,236.30
2023-04-07T07:13:07.864Z,254.13
2023-04-07T07:15:35.806Z,257.53
2023-04-07T07:18:03.877Z,278.17
2023-04-07T07:20:32.973Z,263.77
2023-04-07T07:23:00.778Z,282.10
2023-04-07T07:25:28.986Z,282.07
2023-04-07T07:27:56.634Z,275.63
2023-04-07T07:30:24.942Z,295.77
2023-04-07T07:32:54.481Z,293.57
2023-04-07T07:35:23.147Z,253.87
2023-04-07T07:37:53.255Z,261.87
2023-04-07T07:40:21.425Z,261.63
2023-04-07T07:42:49.079Z,255.53
2023-04-07T07:45:19.408Z,280.83
2023-04-07T07:47:47.303Z,265.47
2023-04-07T07:50:15.044Z,264.33
2023-04-07T07:52:43.268Z,245.80
2023-04-07T07:55:12.265Z,270.87
2023-04-07T07:57:39.898Z,260.90
2023-04-07T08:00:08.760Z,257.97
2023-04-07T08:02:42.436Z,279.13
2023-04-07T08:05:11.321Z,274.92
2023-04-07T08:07:39.050Z,270.67
2023-04-07T08:10:07.721Z,246.10
2023-04-07T08:12:37.094Z,292.27
2023-04-07T08:15:05.328Z,287.95
2023-04-07T08:17:33.144Z,263.73
2023-04-07T08:20:02.044Z,255.57
2023-04-07T08:22:29.746Z,255.95
2023-04-07T08:24:57.430Z,260.55
2023-04-07T08:27:25.197Z,263.65
2023-04-07T08:30:02.047Z,273.83
2023-04-07T08:32:36.134Z,271.15
2023-04-07T08:35:03.989Z,275.50
2023-04-07T08:37:31.880Z,246.05
2023-04-07T08:39:59.489Z,270.27
2023-04-07T08:42:29.737Z,260.33
2023-04-07T08:45:00.250Z,262.83
2023-04-07T08:47:32.945Z,264.73
2023-04-07T08:50:03.744Z,275.55
2023-04-07T08:52:35.297Z,259.90
2023-04-07T08:55:06.678Z,266.67
2023-04-07T08:57:35.172Z,262.60
2023-04-07T09:00:05.682Z,270.27
2023-04-07T09:02:36.380Z,268.50
2023-04-07T09:05:06.314Z,277.52
2023-04-07T09:07:35.696Z,256.35
2023-04-07T09:10:03.663Z,275.15
2023-04-07T09:12:32.469Z,286.90
2023-04-07T09:15:00.226Z,288.42
2023-04-07T09:17:28.764Z,270.98
2023-04-07T09:19:59.777Z,271.25
2023-04-07T09:22:38.096Z,262.17
2023-04-07T09:25:16.687Z,291.75
2023-04-07T09:27:55.982Z,297.00
2023-04-07T09:30:24.183Z,288.25
2023-04-07T09:32:52.160Z,278.63
2023-04-07T09:35:23.825Z,296.80
2023-04-07T09:38:03.595Z,279.63
2023-04-07T09:40:32.319Z,305.52
2023-04-07T09:43:00.293Z,271.98
2023-04-07T09:47:59.868Z,307.65
2023-04-07T09:50:36.864Z,298.80
2023-04-07T09:53:04.774Z,307.58
2023-04-07T09:55:33.723Z,293.65
2023-04-07T09:58:02.553Z,314.08
2023-04-07T10:00:30.655Z,316.17
2023-04-07T10:02:58.772Z,294.45
2023-04-07T10:05:26.896Z,306.85
2023-04-07T10:07:56.340Z,286.52
2023-04-07T10:10:24.016Z,299.95
2023-04-07T10:12:55.074Z,295.45
2023-04-07T10:15:23.364Z,297.75
2023-04-07T10:17:52.100Z,289.67
2023-04-07T10:20:21.491Z,291.58
2023-04-07T10:22:51.326Z,302.40
2023-04-07T10:25:23.444Z,277.08
2023-04-07T10:27:54.387Z,289.88
2023-04-07T10:30:26.245Z,276.02
2023-04-07T10:32:55.440Z,268.45
2023-04-07T10:35:24.946Z,290.08
2023-04-07T10:38:13.733Z,288.95
2023-04-07T10:40:43.828Z,279.08
2023-04-07T10:43:12.233Z,286.08
2023-04-07T10:45:59.424Z,271.58
2023-04-07T10:48:32.810Z,285.60
2023-04-07T10:51:17.838Z,285.55
2023-04-07T10:54:20.928Z,290.05
2023-04-07T10:57:10.502Z,283.20
2023-04-07T10:59:40.077Z,286.10
2023-04-07T11:02:35.955Z,294.35
2023-04-07T11:05:04.329Z,293.65
2023-04-07T11:07:45.992Z,307.42
2023-04-07T11:10:15.974Z,308.38
2023-04-07T11:12:45.449Z,299.27
2023-04-07T11:15:21.885Z,300.92
2023-04-07T11:18:07.365Z,287.20
2023-04-07T11:20:43.825Z,273.45
2023-04-07T11:23:13.511Z,299.20
2023-04-07T11:25:43.948Z,322.75
2023-04-07T11:28:14.190Z,301.80
2023-04-07T11:30:47.229Z,309.70
2023-04-07T11:33:19.638Z,303.50
2023-04-07T11:35:56.660Z,326.48
2023-04-07T11:38:27.264Z,323.65
2023-04-07T11:40:55.868Z,313.85
2023-04-07T11:43:26.048Z,294.73
2023-04-07T11:46:07.610Z,326.40
2023-04-07T11:48:37.084Z,302.95
2023-04-07T11:51:06.061Z,325.23
2023-04-07T11:53:37.845Z,304.98
2023-04-07T11:56:09.450Z,312.85
2023-04-07T11:58:38.826Z,307.85
2023-04-07T12:01:08.904Z,326.42
2023-04-07T12:03:37.978Z,341.10
2023-04-07T12:06:07.076Z,329.23
2023-04-07T12:08:42.445Z,342.70
2023-04-07T12:11:10.599Z,346.67
2023-04-07T12:13:39.780Z,332.42
2023-04-07T12:16:07.711Z,345.98
2023-04-07T12:18:35.391Z,336.60
2023-04-07T12:21:03.112Z,336.10
2023-04-07T12:23:30.833Z,333.30
2023-04-07T12:25:58.470Z,345.48
2023-04-07T12:28:26.194Z,352.80
2023-04-07T12:30:55.198Z,342.30
2023-04-07T12:33:22.938Z,327.50
2023-04-07T12:35:50.646Z,325.70
2023-04-07T12:38:18.417Z,341.17
2023-04-07T12:40:46.311Z,339.05
2023-04-07T12:43:13.944Z,347.13
2023-04-07T12:45:41.694Z,334.02
2023-04-07T12:48:10.912Z,341.17
2023-04-07T12:50:38.643Z,340.45
2023-04-07T12:53:06.308Z,334.15
2023-04-07T12:55:35.581Z,339.42
2023-04-07T12:58:03.369Z,356.13
2023-04-07T13:00:31.438Z,325.17
2023-04-07T13:02:59.307Z,327.58
2023-04-07T13:05:29.794Z,314.05
2023-04-07T13:07:57.458Z,311.40
2023-04-07T13:10:25.359Z,312.42
2023-04-07T13:12:53.204Z,335.75
2023-04-07T13:15:20.906Z,306.13
2023-04-07T13:17:48.573Z,289.83
2023-04-07T13:20:19.888Z,309.48
2023-04-07T13:23:02.737Z,322.40
2023-04-07T13:25:35.100Z,304.38
2023-04-07T13:28:02.747Z,314.50
2023-04-07T13:30:30.505Z,321.73
2023-04-07T13:32:58.483Z,316.35
2023-04-07T13:35:26.599Z,304.33
2023-04-07T13:37:55.583Z,305.13
2023-04-07T13:40:23.352Z,310.48
2023-04-07T13:42:51.058Z,310.00
2023-04-07T13:45:18.909Z,291.88
2023-04-07T13:47:46.980Z,322.92
2023-04-07T13:50:14.721Z,291.85
2023-04-07T13:52:42.470Z,307.08
2023-04-07T13:55:11.783Z,299.02
2023-04-07T13:57:39.404Z,315.40
2023-04-07T14:00:08.562Z,319.33
2023-04-07T14:02:36.797Z,322.58
2023-04-07T14:05:04.702Z,336.40
2023-04-07T14:07:32.397Z,326.35
2023-04-07T14:10:00.057Z,333.80
2023-04-07T14:12:29.045Z,329.38
2023-04-07T14:14:57.020Z,332.98
2023-04-07T14:17:25.020Z,337.25
2023-04-07T14:19:52.651Z,322.00
2023-04-07T14:22:20.860Z,321.08
2023-04-07T14:24:48.856Z,324.40
2023-04-07T14:27:20.693Z,307.33
2023-04-07T14:29:49.765Z,309.95
2023-04-07T14:32:17.517Z,287.58
2023-04-07T14:34:45.160Z,273.52
2023-04-07T14:37:14.003Z,282.38
2023-04-07T14:39:48.557Z,309.40
2023-04-07T14:42:23.394Z,293.52
2023-04-07T14:44:53.089Z,301.30
2023-04-07T14:47:20.951Z,304.63
2023-04-07T14:49:49.640Z,293.40
2023-04-07T14:52:19.432Z,302.70
2023-04-07T14:54:47.234Z,288.15
2023-04-07T14:57:14.909Z,287.08
2023-04-07T14:59:42.607Z,308.35
2023-04-07T15:02:11.725Z,308.77
2023-04-07T15:04:39.663Z,309.48
2023-04-07T15:07:07.528Z,320.58
2023-04-07T15:09:35.202Z,311.05
2023-04-07T15:12:02.864Z,304.15
2023-04-07T15:14:30.562Z,314.33
2023-04-07T15:16:58.206Z,290.15
2023-04-07T15:19:27.248Z,320.58
2023-04-07T15:21:54.872Z,311.30
2023-04-07T15:24:22.541Z,308.17
2023-04-07T15:26:50.272Z,320.17
2023-04-07T15:29:17.856Z,316.92
2023-04-07T15:31:45.703Z,310.23
2023-04-07T15:34:13.959Z,317.27
2023-04-07T15:36:42.940Z,319.73
2023-04-07T15:39:10.561Z,302.90
2023-04-07T15:41:39.108Z,293.90
2023-04-07T15:44:07.087Z,304.67
2023-04-07T15:46:34.764Z,305.70
2023-04-07T15:49:02.535Z,315.77
2023-04-07T15:51:30.983Z,289.50
2023-04-07T15:54:00.829Z,317.50
2023-04-07T15:56:28.438Z,307.38
2023-04-07T15:58:56.046Z,325.90
2023-04-07T16:01:24.594Z,312.55
2023-04-07T16:03:52.451Z,318.90
2023-04-07T16:06:20.544Z,314.10
2023-04-07T16:08:48.176Z,300.55
2023-04-07T16:11:17.269Z,330.17
2023-04-07T16:13:44.982Z,317.85
2023-04-07T16:16:12.730Z,314.25
2023-04-07T16:18:40.433Z,301.30
2023-04-07T16:21:08.533Z,310.23
2023-04-07T16:23:36.238Z,312.75
2023-04-07T16:26:04.377Z,302.40
2023-04-07T16:28:33.580Z,292.52
2023-04-07T16:31:02.433Z,309.05
2023-04-07T16:33:30.353Z,293.08
2023-04-07T16:35:58.044Z,293.42
2023-04-07T16:38:28.941Z,290.13
2023-04-07T16:41:03.790Z,310.33
2023-04-07T16:43:33.289Z,309.58
2023-04-07T16:46:01.081Z,303.10
2023-04-07T16:48:29.611Z,296.38
2023-04-07T16:50:57.480Z,295.75
2023-04-07T16:53:26.330Z,304.58
2023-04-07T16:55:53.957Z,301.75
2023-04-07T16:58:21.656Z,291.95
2023-04-07T17:00:51.220Z,306.10
2023-04-07T17:03:19.610Z,295.77
2023-04-07T17:05:48.269Z,279.42
2023-04-07T17:08:16.013Z,289.25
2023-04-07T17:10:43.662Z,291.00
2023-04-07T17:13:11.301Z,292.50
2023-04-07T17:15:39.027Z,293.15
2023-04-07T17:18:08.060Z,292.42
2023-04-07T17:20:35.761Z,277.83
2023-04-07T17:23:03.392Z,296.33
2023-04-07T17:25:31.465Z,264.25
2023-04-07T17:27:59.144Z,277.33
2023-04-07T17:30:27.003Z,282.15
2023-04-07T17:32:54.723Z,275.35
2023-04-07T17:35:24.997Z,280.27
2023-04-07T17:37:52.977Z,281.75
2023-04-07T17:40:20.857Z,284.73
2023-04-07T17:42:48.589Z,265.77
2023-04-07T17:45:17.648Z,280.95
2023-04-07T17:47:46.149Z,279.70
2023-04-07T17:50:14.465Z,276.90
2023-04-07T17:52:43.583Z,272.50
2023-04-07T17:55:12.368Z,263.65
2023-04-07T17:57:40.497Z,266.48
2023-04-07T18:00:09.418Z,282.70
2023-04-07T18:02:42.945Z,278.70
2023-04-07T18:05:11.213Z,259.60
2023-04-07T18:07:39.061Z,277.60
2023-04-07T18:10:10.015Z,281.50
2023-04-07T18:12:37.678Z,266.98
2023-04-07T18:15:05.841Z,284.48
2023-04-07T18:17:33.778Z,299.02
2023-04-07T18:20:02.110Z,292.65
2023-04-07T18:22:29.789Z,280.75
2023-04-07T18:24:57.457Z,281.63
2023-04-07T18:27:28.269Z,296.02
2023-04-07T18:29:56.297Z,269.65
2023-04-07T18:32:23.989Z,257.80
2023-04-07T18:34:53.548Z,266.50
2023-04-07T18:37:21.615Z,258.35
2023-04-07T18:39:49.589Z,266.52
2023-04-07T18:42:17.341Z,269.55
2023-04-07T18:44:46.392Z,270.70
2023-04-07T18:47:14.215Z,270.20
2023-04-07T18:49:42.027Z,273.63
2023-04-07T18:52:09.948Z,263.63
2023-04-07T18:54:37.677Z,279.30
2023-04-07T18:57:05.309Z,276.85
2023-04-07T18:59:33.033Z,286.73
2023-04-07T19:02:02.107Z,264.38
2023-04-07T19:04:29.838Z,255.48
2023-04-07T19:06:57.575Z,269.63
2023-04-07T19:09:25.822Z,250.15
2023-04-07T19:11:53.630Z,255.80
2023-04-07T19:14:21.357Z,271.33
2023-04-07T19:16:49.142Z,255.60
2023-04-07T19:19:18.102Z,273.93
2023-04-07T19:21:45.810Z,261.43
2023-04-07T19:24:13.623Z,259.30
2023-04-07T19:26:42.279Z,252.70
2023-04-07T19:29:11.548Z,272.97
2023-04-07T19:31:39.535Z,251.67
2023-04-07T19:34:07.222Z,260.47
2023-04-07T19:36:36.421Z,264.23
2023-04-07T19:39:05.243Z,246.23
2023-04-07T19:41:33.050Z,254.83
2023-04-07T19:44:01.078Z,253.73
2023-04-07T19:46:28.967Z,247.23
2023-04-07T19:48:57.096Z,247.27
2023-04-07T19:51:24.796Z,239.10
2023-04-07T19:53:53.827Z,254.80
2023-04-07T19:56:21.458Z,254.73
2023-04-07T19:58:49.282Z,264.13
2023-04-07T20:01:17.970Z,253.43
2023-04-07T20:03:46.641Z,254.53
2023-04-07T20:06:15.193Z,235.17
2023-04-07T20:08:43.264Z,253.40
2023-04-07T20:11:13.347Z,251.37
2023-04-07T20:13:42.322Z,249.90
2023-04-07T20:16:10.735Z,256.63
2023-04-07T20:18:38.522Z,263.07
2023-04-07T20:21:06.813Z,273.23
2023-04-07T20:23:34.698Z,258.70
2023-04-07T20:26:02.593Z,264.47
2023-04-07T20:28:31.730Z,265.70
2023-04-07T20:31:00.052Z,250.03
2023-04-07T20:33:28.040Z,261.67
2023-04-07T20:35:55.836Z,259.93
2023-04-07T20:38:23.508Z,276.27
2023-04-07T20:40:51.174Z,262.90
2023-04-07T20:43:21.775Z,256.60
2023-04-07T20:45:52.068Z,270.67
2023-04-07T20:48:23.626Z,268.40
2023-04-07T20:50:51.905Z,272.03
2023-04-07T20:53:19.633Z,268.33
2023-04-07T20:55:47.975Z,259.73
2023-04-07T20:58:17.856Z,265.13
2023-04-07T21:00:45.870Z,264.13
2023-04-07T21:03:15.209Z,288.87
2023-04-07T21:05:43.412Z,283.93
2023-04-07T21:08:12.383Z,275.93
2023-04-07T21:10:41.627Z,248.00
2023-04-07T21:13:09.273Z,264.77
2023-04-07T21:15:37.657Z,269.27
2023-04-07T21:18:05.446Z,278.53
2023-04-07T21:20:36.680Z,265.33
2023-04-07T21:23:04.871Z,266.33
2023-04-07T21:25:32.541Z,269.73
2023-04-07T21:28:00.211Z,267.97
2023-04-07T21:30:27.840Z,286.07
2023-04-07T21:32:55.756Z,253.00
2023-04-07T21:35:23.480Z,284.97
2023-04-07T21:37:52.429Z,265.63
2023-04-07T21:40:20.861Z,277.13
2023-04-07T21:42:48.520Z,266.53
2023-04-07T21:45:17.367Z,274.13
2023-04-07T21:47:45.043Z,276.63
2023-04-07T21:50:13.467Z,279.57
2023-04-07T21:52:42.325Z,273.60
2023-04-07T21:55:11.704Z,278.80
2023-04-07T21:57:39.463Z,279.80
2023-04-07T22:00:08.924Z,270.73
2023-04-07T22:02:42.720Z,274.93
2023-04-07T22:05:10.919Z,270.20
2023-04-07T22:07:38.903Z,298.93
2023-04-07T22:10:07.953Z,279.50
2023-04-07T22:12:37.000Z,287.13
2023-04-07T22:15:05.723Z,273.23
2023-04-07T22:17:33.452Z,278.70
2023-04-07T22:20:01.189Z,281.50
2023-04-07T22:22:28.796Z,275.83
2023-04-07T22:24:56.449Z,310.37
2023-04-07T22:27:24.291Z,280.60
2023-04-07T22:29:53.279Z,269.07
2023-04-07T22:32:21.063Z,281.50
2023-04-07T22:34:48.738Z,283.90
2023-04-07T22:37:16.518Z,277.93
2023-04-07T22:39:46.158Z,276.13
2023-04-07T22:42:13.756Z,284.57
2023-04-07T22:44:41.391Z,281.47
2023-04-07T22:47:10.574Z,281.43
2023-04-07T22:49:38.186Z,272.00
2023-04-07T22:52:06.181Z,275.87
2023-04-07T22:54:33.845Z,285.17
2023-04-07T22:57:02.354Z,295.70
2023-04-07T22:59:30.048Z,271.47
2023-04-07T23:01:57.906Z,278.03
2023-04-07T23:04:27.205Z,280.50
2023-04-07T23:06:54.918Z,284.43
2023-04-07T23:09:23.021Z,262.23
2023-04-07T23:11:50.750Z,280.47
2023-04-07T23:14:18.437Z,282.60
2023-04-07T23:16:46.064Z,291.43
2023-04-07T23:19:15.825Z,283.50
2023-04-07T23:21:44.923Z,295.87
2023-04-07T23:24:12.550Z,268.23
2023-04-07T23:26:40.375Z,289.90
2023-04-07T23:29:08.015Z,278.00
2023-04-07T23:31:35.759Z,276.97
2023-04-07T23:34:05.303Z,288.23
2023-04-07T23:36:33.462Z,256.67
2023-04-07T23:39:02.937Z,267.80
2023-04-07T23:41:30.560Z,283.70
2023-04-07T23:43:58.181Z,250.10
2023-04-07T23:46:25.893Z,283.10
2023-04-07T23:48:53.750Z,254.30
2023-04-07T23:51:22.580Z,270.23
2023-04-07T23:53:50.248Z,281.03
2023-04-07T23:56:19.229Z,254.90
2023-04-07T23:58:46.993Z,268.03
